Time;durP1;ratioP1;P1;durP2;ratioP2;P2;SDS_P1;SDS_P2;PMS_P1;PMS_P2;Temp;Humidity;BMP_temperature;BMP_pressure;BME280_temperature;BME280_humidity;BME280_pressure;Samples;Min_cycle;Max_cycle;Signal;HPM_P1;HPM_P2
2023/04/05 00:01:24;;;;;;;2.53;1.45;;;;;;;;;;4992640;28;20022;-75
2023/04/05 00:03:53;;;;;;;2.25;1.30;;;;;;;;;;5008386;28;20060;-75
2023/04/05 00:06:21;;;;;;;3.10;1.38;;;;;;;;;;5009741;28;20029;-75
2023/04/05 00:08:49;;;;;;;1.52;1.33;;;;;;;;;;5007937;28;20021;-75
2023/04/05 00:11:15;;;;;;;2.88;1.58;;;;;;;;;;4993300;28;20031;-75
2023/04/05 00:13:42;;;;;;;2.00;1.30;;;;;;;;;;4993007;28;20053;-75
2023/04/05 00:16:08;;;;;;;2.92;1.73;;;;;;;;;;4989579;28;20478;-75
2023/04/05 00:18:34;;;;;;;1.60;1.15;;;;;;;;;;4989871;28;20026;-75
2023/04/05 00:21:00;;;;;;;1.42;1.33;;;;;;;;;;5004449;28;20793;-75
2023/04/05 00:23:26;;;;;;;2.90;1.48;;;;;;;;;;4999608;28;20109;-75
2023/04/05 00:25:52;;;;;;;2.10;1.52;;;;;;;;;;4996440;28;20488;-75
2023/04/05 00:28:18;;;;;;;1.52;1.08;;;;;;;;;;5009094;28;20164;-75
2023/04/05 00:30:44;;;;;;;2.47;1.45;;;;;;;;;;5008709;28;20452;-74
2023/04/05 00:33:12;;;;;;;2.40;1.35;;;;;;;;;;5006937;28;20033;-75
2023/04/05 00:35:41;;;;;;;1.30;1.13;;;;;;;;;;5000481;28;20500;-75
2023/04/05 00:38:07;;;;;;;1.95;1.20;;;;;;;;;;5008694;28;20053;-75
2023/04/05 00:40:33;;;;;;;1.48;1.38;;;;;;;;;;5009040;28;20712;-75
2023/04/05 00:42:59;;;;;;;2.25;1.25;;;;;;;;;;5007272;28;20604;-75
2023/04/05 00:45:26;;;;;;;2.25;1.30;;;;;;;;;;4994452;28;20405;-75
2023/04/05 00:47:52;;;;;;;2.13;1.30;;;;;;;;;;4997249;28;20577;-75
2023/04/05 00:50:18;;;;;;;2.53;1.63;;;;;;;;;;5000638;28;20034;-75
2023/04/05 00:52:44;;;;;;;1.83;1.45;;;;;;;;;;4989366;28;21483;-75
2023/04/05 00:55:11;;;;;;;1.88;1.23;;;;;;;;;;4996992;28;20370;-76
2023/04/05 00:57:40;;;;;;;1.30;1.13;;;;;;;;;;4995136;28;20026;-76
2023/04/05 01:00:08;;;;;;;2.67;1.00;;;;;;;;;;4988477;28;20049;-76
2023/04/05 01:02:54;;;;;;;2.13;1.20;;;;;;;;;;4999584;28;20392;-75
2023/04/05 01:05:25;;;;;;;1.42;0.88;;;;;;;;;;4996733;28;20181;-75
2023/04/05 01:07:55;;;;;;;2.20;1.27;;;;;;;;;;5007481;28;20169;-75
2023/04/05 01:10:22;;;;;;;1.30;1.00;;;;;;;;;;5007115;28;20744;-75
2023/04/05 01:12:48;;;;;;;2.15;1.20;;;;;;;;;;5007731;28;20508;-75
2023/04/05 01:15:14;;;;;;;1.23;1.02;;;;;;;;;;4996237;28;20030;-75
2023/04/05 01:17:40;;;;;;;1.33;0.85;;;;;;;;;;4989567;28;20504;-75
2023/04/05 01:20:09;;;;;;;3.92;1.23;;;;;;;;;;4987897;28;20019;-75
2023/04/05 01:22:54;;;;;;;1.33;0.90;;;;;;;;;;4992562;28;20032;-75
2023/04/05 01:25:20;;;;;;;2.58;1.45;;;;;;;;;;5007216;28;20021;-75
2023/04/05 01:27:55;;;;;;;1.52;1.00;;;;;;;;;;5007327;28;20562;-76
2023/04/05 01:30:22;;;;;;;1.52;1.05;;;;;;;;;;5007028;28;20101;-75
2023/04/05 01:32:54;;;;;;;1.15;1.00;;;;;;;;;;5006275;28;20491;-74
2023/04/05 01:35:33;;;;;;;2.78;1.30;;;;;;;;;;4990572;28;20163;-75
2023/04/05 01:38:00;;;;;;;1.33;1.08;;;;;;;;;;4987348;28;20065;-75
2023/04/05 01:40:27;;;;;;;1.45;1.30;;;;;;;;;;4993311;28;20090;-75
2023/04/05 01:42:53;;;;;;;1.33;0.70;;;;;;;;;;4973315;28;972009;-75
2023/04/05 01:45:19;;;;;;;1.55;0.82;;;;;;;;;;4993581;28;20037;-75
2023/04/05 01:47:45;;;;;;;1.67;1.17;;;;;;;;;;5006790;28;20014;-75
2023/04/05 01:50:11;;;;;;;2.63;1.08;;;;;;;;;;5007728;28;20022;-74
2023/04/05 01:52:37;;;;;;;1.05;0.88;;;;;;;;;;5008025;28;20440;-75
2023/04/05 01:55:03;;;;;;;1.38;1.02;;;;;;;;;;5006487;28;20018;-75
2023/04/05 01:57:29;;;;;;;3.97;1.20;;;;;;;;;;4997617;28;20041;-76
2023/04/05 01:59:58;;;;;;;2.65;1.05;;;;;;;;;;4988064;28;20023;-75
2023/04/05 02:02:24;;;;;;;1.08;0.85;;;;;;;;;;4979653;28;20058;-75
2023/04/05 02:04:50;;;;;;;1.10;0.98;;;;;;;;;;5000068;28;21406;-76
2023/04/05 02:07:16;;;;;;;1.85;0.93;;;;;;;;;;4997452;28;20096;-75
2023/04/05 02:09:42;;;;;;;0.85;0.80;;;;;;;;;;4987545;28;20026;-75
2023/04/05 02:12:08;;;;;;;1.25;0.90;;;;;;;;;;4996858;28;20018;-74
2023/04/05 02:14:34;;;;;;;0.90;0.70;;;;;;;;;;4995568;28;20038;-75
2023/04/05 02:17:01;;;;;;;2.38;1.23;;;;;;;;;;4987607;28;20058;-75
2023/04/05 02:19:30;;;;;;;1.30;0.98;;;;;;;;;;4987484;28;20030;-75
2023/04/05 02:21:56;;;;;;;1.08;0.90;;;;;;;;;;4990182;28;20048;-75
2023/04/05 02:24:22;;;;;;;1.58;1.13;;;;;;;;;;4992316;28;20030;-75
2023/04/05 02:26:48;;;;;;;1.77;0.90;;;;;;;;;;5002079;28;20034;-75
2023/04/05 02:29:14;;;;;;;1.40;0.95;;;;;;;;;;5007507;28;20045;-75
2023/04/05 02:31:40;;;;;;;1.77;1.20;;;;;;;;;;5007418;28;20030;-75
2023/04/05 02:34:08;;;;;;;0.80;0.80;;;;;;;;;;5006653;28;20030;-75
2023/04/05 02:36:34;;;;;;;2.33;1.10;;;;;;;;;;4996185;28;20393;-76
2023/04/05 02:39:00;;;;;;;0.90;0.77;;;;;;;;;;4987325;28;20018;-76
2023/04/05 02:41:25;;;;;;;1.98;1.08;;;;;;;;;;4991579;28;20065;-75
2023/04/05 02:43:51;;;;;;;1.20;1.05;;;;;;;;;;5007231;28;20026;-75
2023/04/05 02:46:17;;;;;;;0.68;0.68;;;;;;;;;;4995020;28;20165;-75
2023/04/05 02:48:45;;;;;;;1.45;0.82;;;;;;;;;;4989147;28;20486;-75
2023/04/05 02:51:11;;;;;;;3.60;0.85;;;;;;;;;;4991056;28;20050;-75
2023/04/05 02:53:37;;;;;;;2.05;1.05;;;;;;;;;;4989227;28;20149;-75
2023/04/05 02:56:03;;;;;;;0.90;0.80;;;;;;;;;;5000131;28;20034;-75
2023/04/05 02:58:29;;;;;;;1.33;1.00;;;;;;;;;;5007282;28;20109;-76
2023/04/05 03:00:55;;;;;;;0.63;0.60;;;;;;;;;;5006930;28;20026;-75
2023/04/05 03:03:21;;;;;;;1.27;0.88;;;;;;;;;;5007269;28;20049;-75
2023/04/05 03:05:48;;;;;;;1.08;0.73;;;;;;;;;;5005546;28;20041;-76
2023/04/05 03:08:22;;;;;;;1.05;0.68;;;;;;;;;;4993823;28;20038;-75
2023/04/05 03:10:52;;;;;;;2.50;0.93;;;;;;;;;;4987506;28;20026;-76
2023/04/05 03:13:18;;;;;;;0.65;0.65;;;;;;;;;;4994071;28;20092;-75
2023/04/05 03:15:44;;;;;;;0.80;0.80;;;;;;;;;;5007367;28;20026;-75
2023/04/05 03:18:10;;;;;;;1.05;0.90;;;;;;;;;;5010270;28;20484;-75
2023/04/05 03:20:38;;;;;;;0.85;0.85;;;;;;;;;;5010284;28;20032;-75
2023/04/05 03:23:05;;;;;;;0.70;0.70;;;;;;;;;;5010422;28;20088;-75
2023/04/05 03:25:31;;;;;;;1.52;0.75;;;;;;;;;;5010561;28;20014;-76
2023/04/05 03:27:57;;;;;;;1.65;0.68;;;;;;;;;;5002648;28;20049;-74
2023/04/05 03:30:23;;;;;;;1.58;1.00;;;;;;;;;;4990566;28;20026;-75
2023/04/05 03:32:49;;;;;;;1.45;0.77;;;;;;;;;;4990707;28;20026;-76
2023/04/05 03:35:17;;;;;;;1.45;0.93;;;;;;;;;;4990825;28;20029;-75
2023/04/05 03:37:44;;;;;;;1.27;0.80;;;;;;;;;;4996432;28;20076;-75
2023/04/05 03:40:10;;;;;;;2.55;0.80;;;;;;;;;;4996765;28;20088;-76
2023/04/05 03:42:36;;;;;;;0.93;0.77;;;;;;;;;;5002387;28;20157;-75
2023/04/05 03:45:04;;;;;;;0.65;0.65;;;;;;;;;;5007926;28;20034;-75
2023/04/05 03:47:30;;;;;;;0.80;0.75;;;;;;;;;;4990167;28;20545;-75
2023/04/05 03:49:56;;;;;;;2.40;1.00;;;;;;;;;;4990226;28;20557;-74
2023/04/05 03:52:22;;;;;;;1.48;1.02;;;;;;;;;;4990770;28;20026;-75
2023/04/05 03:54:48;;;;;;;1.17;0.70;;;;;;;;;;4997766;28;20076;-76
2023/04/05 03:57:14;;;;;;;2.80;1.10;;;;;;;;;;5000690;28;20081;-75
2023/04/05 03:59:41;;;;;;;3.60;0.90;;;;;;;;;;4990457;28;20109;-75
2023/04/05 04:02:07;;;;;;;1.45;0.90;;;;;;;;;;5004401;28;20018;-75
2023/04/05 04:04:33;;;;;;;0.60;0.50;;;;;;;;;;5000285;28;20531;-76
2023/04/05 04:06:59;;;;;;;1.77;0.93;;;;;;;;;;4990257;28;20038;-75
2023/04/05 04:09:26;;;;;;;0.93;0.70;;;;;;;;;;4999630;28;20042;-75
2023/04/05 04:11:52;;;;;;;2.55;0.93;;;;;;;;;;4989622;28;20032;-75
2023/04/05 04:14:18;;;;;;;1.58;1.00;;;;;;;;;;4992588;28;20647;-75
2023/04/05 04:16:44;;;;;;;1.48;0.98;;;;;;;;;;5009707;28;20481;-75
2023/04/05 04:19:10;;;;;;;1.05;0.93;;;;;;;;;;5008281;28;20366;-75
2023/04/05 04:21:38;;;;;;;1.45;0.75;;;;;;;;;;5000676;28;20034;-75
2023/04/05 04:24:04;;;;;;;1.08;0.98;;;;;;;;;;4990077;28;20034;-75
2023/04/05 04:26:36;;;;;;;1.30;0.80;;;;;;;;;;5006124;28;20121;-75
2023/04/05 04:29:05;;;;;;;1.85;0.75;;;;;;;;;;5009059;28;20493;-75
2023/04/05 04:31:32;;;;;;;1.02;0.93;;;;;;;;;;4998735;28;20084;-76
2023/04/05 04:34:01;;;;;;;1.00;0.82;;;;;;;;;;4992315;28;20036;-75
2023/04/05 04:36:33;;;;;;;1.67;0.85;;;;;;;;;;4992870;28;20109;-75
2023/04/05 04:39:01;;;;;;;2.88;1.30;;;;;;;;;;4989340;28;20031;-75
2023/04/05 04:41:27;;;;;;;1.13;0.88;;;;;;;;;;4993472;28;20038;-75
2023/04/05 04:43:53;;;;;;;0.50;0.50;;;;;;;;;;5008340;28;20025;-75
2023/04/05 04:46:19;;;;;;;1.60;0.90;;;;;;;;;;5018891;28;20025;-75
2023/04/05 04:48:46;;;;;;;0.95;0.75;;;;;;;;;;5013399;28;20120;-75
2023/04/05 04:51:12;;;;;;;1.40;0.80;;;;;;;;;;5016607;28;20560;-75
2023/04/05 04:53:38;;;;;;;1.35;0.88;;;;;;;;;;5009401;28;20034;-75
2023/04/05 04:56:10;;;;;;;1.67;1.20;;;;;;;;;;5028360;28;20442;-75
2023/04/05 04:58:36;;;;;;;1.08;0.57;;;;;;;;;;5025070;28;20091;-75
2023/04/05 05:01:07;;;;;;;1.23;0.80;;;;;;;;;;5028378;28;20068;-75
2023/04/05 05:03:35;;;;;;;1.02;0.82;;;;;;;;;;5020874;28;20013;-74
2023/04/05 05:06:01;;;;;;;0.60;0.57;;;;;;;;;;5022941;28;20455;-75
2023/04/05 05:08:27;;;;;;;0.82;0.77;;;;;;;;;;5008848;28;20127;-75
2023/04/05 05:10:53;;;;;;;1.08;0.63;;;;;;;;;;5008512;28;20034;-75
2023/04/05 05:13:19;;;;;;;0.82;0.73;;;;;;;;;;5008603;28;20400;-75
2023/04/05 05:15:45;;;;;;;0.68;0.68;;;;;;;;;;5015834;28;20034;-76
2023/04/05 05:18:11;;;;;;;1.02;0.80;;;;;;;;;;5008625;28;20695;-75
2023/04/05 05:20:37;;;;;;;0.55;0.55;;;;;;;;;;5008218;28;20026;-75
2023/04/05 05:23:04;;;;;;;1.05;0.80;;;;;;;;;;5008104;28;20026;-75
2023/04/05 05:25:30;;;;;;;0.88;0.63;;;;;;;;;;5023612;28;20476;-75
2023/04/05 05:27:56;;;;;;;0.75;0.63;;;;;;;;;;5008334;28;20065;-75
2023/04/05 05:30:22;;;;;;;0.65;0.65;;;;;;;;;;5008017;28;20026;-75
2023/04/05 05:32:48;;;;;;;1.05;0.60;;;;;;;;;;5008559;28;20022;-76
2023/04/05 05:35:14;;;;;;;0.57;0.57;;;;;;;;;;5008002;28;20772;-75
2023/04/05 05:37:40;;;;;;;1.58;0.82;;;;;;;;;;5025615;28;20018;-75
2023/04/05 05:40:15;;;;;;;0.60;0.60;;;;;;;;;;5013963;28;20030;-75
2023/04/05 05:42:41;;;;;;;0.70;0.68;;;;;;;;;;5002548;28;20447;-75
2023/04/05 05:45:07;;;;;;;0.52;0.52;;;;;;;;;;5006295;28;20042;-76
2023/04/05 05:47:33;;;;;;;0.77;0.77;;;;;;;;;;5019284;28;20025;-75
2023/04/05 05:49:59;;;;;;;1.80;0.90;;;;;;;;;;5026053;28;20026;-75
2023/04/05 05:52:25;;;;;;;2.03;1.02;;;;;;;;;;5026363;28;20056;-76
2023/04/05 05:54:51;;;;;;;1.23;0.90;;;;;;;;;;5027356;28;20408;-76
2023/04/05 05:57:17;;;;;;;0.95;0.60;;;;;;;;;;5021914;28;20033;-75
2023/04/05 05:59:43;;;;;;;1.52;0.65;;;;;;;;;;5012407;28;20027;-76
2023/04/05 06:02:13;;;;;;;0.77;0.65;;;;;;;;;;5019593;28;20057;-76
2023/04/05 06:04:39;;;;;;;1.88;0.95;;;;;;;;;;5011409;28;20026;-75
2023/04/05 06:07:05;;;;;;;0.82;0.57;;;;;;;;;;5007251;28;20022;-75
2023/04/05 06:09:34;;;;;;;1.13;0.75;;;;;;;;;;5008676;28;20091;-75
2023/04/05 06:12:00;;;;;;;2.85;0.95;;;;;;;;;;5008240;28;20125;-75
2023/04/05 06:14:27;;;;;;;1.17;0.63;;;;;;;;;;5007499;28;20029;-75
2023/04/05 06:16:53;;;;;;;2.53;0.98;;;;;;;;;;5007124;28;20117;-75
2023/04/05 06:19:22;;;;;;;1.88;0.85;;;;;;;;;;5020332;28;20362;-76
2023/04/05 06:21:48;;;;;;;0.70;0.70;;;;;;;;;;5027838;28;20053;-75
2023/04/05 06:24:14;;;;;;;1.75;0.85;;;;;;;;;;5027558;28;20107;-75
2023/04/05 06:26:40;;;;;;;1.13;0.70;;;;;;;;;;5023124;28;20017;-75
2023/04/05 06:29:06;;;;;;;0.88;0.80;;;;;;;;;;5022332;28;20053;-75
2023/04/05 06:31:36;;;;;;;1.55;0.85;;;;;;;;;;5007484;28;20133;-76
2023/04/05 06:34:02;;;;;;;0.95;0.75;;;;;;;;;;5007263;28;20022;-76
2023/04/05 06:36:31;;;;;;;0.50;0.50;;;;;;;;;;5007798;28;20026;-76
2023/04/05 06:39:00;;;;;;;0.90;0.70;;;;;;;;;;5011552;28;20420;-75
2023/04/05 06:41:26;;;;;;;0.47;0.47;;;;;;;;;;5015625;28;20100;-76
2023/04/05 06:43:55;;;;;;;1.15;0.63;;;;;;;;;;5007098;28;20025;-75
2023/04/05 06:46:21;;;;;;;0.55;0.52;;;;;;;;;;5010265;28;20123;-76
2023/04/05 06:48:48;;;;;;;2.33;1.13;;;;;;;;;;5008592;28;20072;-76
2023/04/05 06:51:14;;;;;;;1.10;0.70;;;;;;;;;;5017334;28;20111;-76
2023/04/05 06:53:40;;;;;;;0.75;0.75;;;;;;;;;;5010826;28;20032;-76
2023/04/05 06:56:06;;;;;;;0.60;0.60;;;;;;;;;;5023118;28;20037;-76
2023/04/05 06:58:32;;;;;;;0.85;0.63;;;;;;;;;;5030749;28;20025;-76
2023/04/05 07:01:00;;;;;;;0.93;0.68;;;;;;;;;;5030379;28;20024;-76
2023/04/05 07:03:26;;;;;;;1.75;0.90;;;;;;;;;;5012016;28;20049;-76
2023/04/05 07:05:53;;;;;;;1.23;0.70;;;;;;;;;;5019799;28;20068;-77
2023/04/05 07:08:22;;;;;;;2.33;1.15;;;;;;;;;;5029881;28;20396;-76
2023/04/05 07:10:49;;;;;;;0.70;0.50;;;;;;;;;;5030128;28;20075;-76
2023/04/05 07:13:16;;;;;;;1.10;0.90;;;;;;;;;;5015091;28;20033;-75
2023/04/05 07:15:42;;;;;;;1.05;0.70;;;;;;;;;;5026322;28;20424;-76
2023/04/05 07:18:08;;;;;;;0.63;0.60;;;;;;;;;;5010695;28;20025;-76
2023/04/05 07:20:34;;;;;;;0.60;0.60;;;;;;;;;;5010783;28;20026;-76
2023/04/05 07:23:00;;;;;;;1.17;0.75;;;;;;;;;;5017636;28;20037;-76
2023/04/05 07:25:26;;;;;;;1.75;0.60;;;;;;;;;;5022493;28;20582;-76
2023/04/05 07:27:52;;;;;;;0.95;0.60;;;;;;;;;;5022213;28;20530;-76
2023/04/05 07:30:18;;;;;;;1.45;0.70;;;;;;;;;;5010799;28;20026;-76
2023/04/05 07:32:44;;;;;;;1.35;0.95;;;;;;;;;;5027103;28;20032;-76
2023/04/05 07:35:10;;;;;;;0.63;0.50;;;;;;;;;;5015277;28;20026;-76
2023/04/05 07:37:36;;;;;;;0.40;0.40;;;;;;;;;;5014904;28;20030;-76
2023/04/05 07:40:04;;;;;;;0.82;0.73;;;;;;;;;;5010320;28;20022;-76
2023/04/05 07:42:30;;;;;;;1.23;0.77;;;;;;;;;;5020884;28;20073;-76
2023/04/05 07:44:57;;;;;;;1.42;0.70;;;;;;;;;;5030266;28;20480;-76
2023/04/05 07:47:23;;;;;;;0.77;0.50;;;;;;;;;;5030207;28;20721;-76
2023/04/05 07:49:49;;;;;;;0.63;0.60;;;;;;;;;;5029899;28;20033;-76
2023/04/05 07:52:15;;;;;;;1.02;0.60;;;;;;;;;;5028751;28;20030;-77
2023/04/05 07:54:42;;;;;;;0.80;0.80;;;;;;;;;;5029894;28;20036;-76
2023/04/05 07:57:09;;;;;;;0.57;0.47;;;;;;;;;;5022566;28;20033;-76
2023/04/05 07:59:37;;;;;;;1.20;0.68;;;;;;;;;;5014882;28;20045;-76
2023/04/05 08:02:03;;;;;;;0.73;0.70;;;;;;;;;;5017692;28;20477;-75
2023/04/05 08:04:29;;;;;;;1.42;0.80;;;;;;;;;;5010163;28;20018;-75
2023/04/05 08:06:55;;;;;;;1.95;0.82;;;;;;;;;;5009595;28;20022;-76
2023/04/05 08:09:21;;;;;;;0.80;0.80;;;;;;;;;;5025096;28;20443;-76
2023/04/05 08:11:47;;;;;;;2.60;0.75;;;;;;;;;;5027024;28;20025;-76
2023/04/05 08:14:13;;;;;;;1.27;0.68;;;;;;;;;;5015846;28;20127;-75
2023/04/05 08:16:39;;;;;;;0.77;0.50;;;;;;;;;;5029447;28;20476;-75
2023/04/05 08:19:05;;;;;;;1.20;0.50;;;;;;;;;;5029223;28;20061;-75
2023/04/05 08:21:31;;;;;;;0.50;0.50;;;;;;;;;;5029641;28;20045;-76
2023/04/05 08:23:57;;;;;;;0.60;0.50;;;;;;;;;;5029133;28;20041;-75
2023/04/05 08:26:32;;;;;;;1.10;0.73;;;;;;;;;;5019284;28;20026;-75
2023/04/05 08:28:58;;;;;;;0.65;0.65;;;;;;;;;;5022619;28;20044;-75
2023/04/05 08:31:24;;;;;;;0.88;0.73;;;;;;;;;;5021135;28;20033;-76
2023/04/05 08:33:50;;;;;;;0.63;0.50;;;;;;;;;;5027795;28;20025;-75
2023/04/05 08:36:16;;;;;;;1.60;0.55;;;;;;;;;;5027430;28;20492;-74
2023/04/05 08:38:42;;;;;;;0.82;0.52;;;;;;;;;;5020041;28;20620;-77
2023/04/05 08:41:17;;;;;;;0.95;0.50;;;;;;;;;;5008368;28;20025;-77
2023/04/05 08:44:01;;;;;;;0.68;0.40;;;;;;;;;;5021702;28;20525;-75
2023/04/05 08:46:27;;;;;;;0.93;0.50;;;;;;;;;;5019592;28;20028;-75
2023/04/05 08:48:57;;;;;;;0.75;0.50;;;;;;;;;;5020386;28;20030;-74
2023/04/05 08:51:23;;;;;;;1.10;0.95;;;;;;;;;;5026691;28;20233;-74
2023/04/05 08:53:49;;;;;;;1.27;1.05;;;;;;;;;;5027439;28;20021;-73
2023/04/05 08:56:27;;;;;;;1.63;1.13;;;;;;;;;;5025327;28;20095;-79
2023/04/05 08:58:57;;;;;;;2.88;1.45;;;;;;;;;;5016041;28;20369;-74
2023/04/05 09:01:24;;;;;;;5.90;2.40;;;;;;;;;;5020892;28;20033;-78
2023/04/05 09:03:52;;;;;;;1.50;1.40;;;;;;;;;;5016172;28;20029;-72
2023/04/05 09:06:18;;;;;;;2.47;1.50;;;;;;;;;;5026404;28;20056;-73
2023/04/05 09:08:44;;;;;;;1.45;1.35;;;;;;;;;;5022500;28;20025;-73
2023/04/05 09:11:11;;;;;;;1.50;1.35;;;;;;;;;;5011166;28;20056;-73
2023/04/05 09:13:37;;;;;;;2.70;1.52;;;;;;;;;;5007902;28;20032;-73
2023/04/05 09:16:03;;;;;;;1.98;1.40;;;;;;;;;;5009468;28;20026;-73
2023/04/05 09:18:30;;;;;;;3.40;1.35;;;;;;;;;;5020967;28;20082;-73
2023/04/05 09:21:05;;;;;;;2.40;1.63;;;;;;;;;;5025415;28;20036;-73
2023/04/05 09:23:33;;;;;;;3.85;1.88;;;;;;;;;;5028097;28;20025;-73
2023/04/05 09:25:59;;;;;;;2.42;1.65;;;;;;;;;;5019694;28;20045;-73
2023/04/05 09:28:41;;;;;;;2.70;1.60;;;;;;;;;;5008162;28;20025;-73
2023/04/05 09:31:07;;;;;;;2.83;1.42;;;;;;;;;;5021469;28;20033;-73
2023/04/05 09:33:34;;;;;;;2.03;1.25;;;;;;;;;;5023108;28;20091;-73
2023/04/05 09:36:01;;;;;;;2.50;1.48;;;;;;;;;;5026199;28;20034;-73
2023/04/05 09:38:43;;;;;;;1.70;1.10;;;;;;;;;;5012631;28;20033;-73
2023/04/05 09:41:12;;;;;;;2.00;1.42;;;;;;;;;;5016926;28;20120;-73
2023/04/05 09:43:39;;;;;;;2.03;1.42;;;;;;;;;;4994979;28;20025;-72
2023/04/05 09:46:05;;;;;;;1.73;1.20;;;;;;;;;;4989964;28;20099;-73
2023/04/05 09:48:45;;;;;;;1.92;1.10;;;;;;;;;;4984633;28;20034;-74
2023/04/05 09:51:11;;;;;;;2.75;1.77;;;;;;;;;;4988098;28;20121;-73
2023/04/05 09:53:37;;;;;;;3.97;1.50;;;;;;;;;;5004471;28;20109;-72
2023/04/05 09:56:09;;;;;;;2.70;1.10;;;;;;;;;;4995686;28;20057;-74
2023/04/05 09:58:35;;;;;;;1.02;0.85;;;;;;;;;;4987470;28;20042;-74
2023/04/05 10:01:04;;;;;;;1.83;1.30;;;;;;;;;;4987431;28;20092;-73
2023/04/05 10:03:30;;;;;;;1.20;1.10;;;;;;;;;;5005593;28;20030;-74
2023/04/05 10:05:56;;;;;;;1.98;1.02;;;;;;;;;;4987505;28;20031;-74
2023/04/05 10:08:22;;;;;;;3.50;1.30;;;;;;;;;;4987703;28;20030;-74
2023/04/05 10:10:49;;;;;;;1.65;1.17;;;;;;;;;;5005740;28;20048;-74
2023/04/05 10:13:19;;;;;;;2.15;0.95;;;;;;;;;;4991340;28;20252;-73
2023/04/05 10:15:46;;;;;;;1.25;0.70;;;;;;;;;;4983653;28;20030;-73
2023/04/05 10:18:18;;;;;;;1.33;1.10;;;;;;;;;;4984556;28;20039;-73
2023/04/05 10:20:46;;;;;;;2.45;1.17;;;;;;;;;;4988779;28;20022;-74
2023/04/05 10:23:25;;;;;;;2.08;1.10;;;;;;;;;;5003259;28;20022;-74
2023/04/05 10:25:51;;;;;;;1.15;0.90;;;;;;;;;;5000562;28;20477;-73
2023/04/05 10:28:30;;;;;;;1.58;1.10;;;;;;;;;;4990690;28;20030;-73
2023/04/05 10:31:01;;;;;;;1.10;1.00;;;;;;;;;;4987394;28;20038;-73
2023/04/05 10:33:35;;;;;;;1.83;0.88;;;;;;;;;;4991008;28;20032;-73
2023/04/05 10:36:09;;;;;;;2.00;0.93;;;;;;;;;;4987293;28;20118;-73
2023/04/05 10:38:50;;;;;;;2.15;1.25;;;;;;;;;;4994260;28;20113;-73
2023/04/05 10:41:16;;;;;;;1.10;0.90;;;;;;;;;;4996718;28;20076;-73
2023/04/05 10:43:43;;;;;;;2.35;0.90;;;;;;;;;;4993740;28;20532;-73
2023/04/05 10:46:10;;;;;;;4.95;1.23;;;;;;;;;;4988203;28;20030;-73
2023/04/05 10:48:40;;;;;;;0.98;0.77;;;;;;;;;;4996386;28;20091;-74
2023/04/05 10:51:06;;;;;;;0.80;0.80;;;;;;;;;;5006472;28;20045;-74
2023/04/05 10:53:33;;;;;;;1.00;0.80;;;;;;;;;;5011213;28;20025;-73
2023/04/05 10:56:01;;;;;;;1.90;0.75;;;;;;;;;;4999016;28;20045;-74
2023/04/05 10:58:28;;;;;;;1.10;0.80;;;;;;;;;;4991211;28;20037;-73
2023/04/05 11:00:54;;;;;;;0.80;0.80;;;;;;;;;;4990216;28;20026;-73
2023/04/05 11:03:39;;;;;;;0.70;0.70;;;;;;;;;;5007405;28;20485;-75
2023/04/05 11:06:19;;;;;;;1.30;0.80;;;;;;;;;;4992379;28;20019;-75
2023/04/05 11:08:45;;;;;;;0.80;0.80;;;;;;;;;;5010835;28;20030;-75
2023/04/05 11:11:15;;;;;;;4.20;1.40;;;;;;;;;;5010484;28;20121;-75
2023/04/05 11:13:47;;;;;;;1.48;0.63;;;;;;;;;;5010898;28;20101;-75
2023/04/05 11:16:13;;;;;;;0.50;0.50;;;;;;;;;;5008085;28;20084;-76
2023/04/05 11:18:44;;;;;;;4.50;0.80;;;;;;;;;;5007316;28;20038;-75
2023/04/05 11:21:10;;;;;;;1.00;1.00;;;;;;;;;;5004764;28;20038;-75
2023/04/05 11:23:55;;;;;;;0.60;0.60;;;;;;;;;;5009408;28;20038;-74
2023/04/05 11:26:21;;;;;;;1.35;0.73;;;;;;;;;;4996709;28;20113;-74
2023/04/05 11:28:48;;;;;;;2.35;1.02;;;;;;;;;;4997086;28;20489;-77
2023/04/05 11:31:15;;;;;;;1.95;0.90;;;;;;;;;;4992966;28;20116;-77
2023/04/05 11:33:44;;;;;;;1.35;0.52;;;;;;;;;;4994121;28;20022;-76
2023/04/05 11:36:11;;;;;;;1.50;1.38;;;;;;;;;;5006399;28;20121;-76
2023/04/05 11:38:39;;;;;;;2.63;0.70;;;;;;;;;;5007067;28;20410;-76
2023/04/05 11:41:19;;;;;;;1.85;0.98;;;;;;;;;;5009601;28;20408;-76
2023/04/05 11:43:46;;;;;;;1.58;0.73;;;;;;;;;;5024891;28;20049;-76
2023/04/05 11:46:14;;;;;;;2.58;1.05;;;;;;;;;;5028618;28;20037;-77
2023/04/05 11:48:41;;;;;;;0.98;0.70;;;;;;;;;;5019911;28;20021;-77
2023/04/05 11:51:10;;;;;;;0.88;0.80;;;;;;;;;;5020548;28;20026;-76
2023/04/05 11:53:37;;;;;;;2.80;0.77;;;;;;;;;;5017887;28;20520;-76
2023/04/05 11:56:07;;;;;;;0.55;0.55;;;;;;;;;;5025404;28;20064;-75
2023/04/05 11:58:33;;;;;;;0.98;0.47;;;;;;;;;;5024140;28;20022;-76
2023/04/05 12:01:00;;;;;;;0.95;0.70;;;;;;;;;;5024899;28;20030;-75
2023/04/05 12:03:30;;;;;;;1.30;0.93;;;;;;;;;;5025423;28;20034;-75
2023/04/05 12:05:57;;;;;;;0.80;0.43;;;;;;;;;;5014958;28;20501;-76
2023/04/05 12:08:24;;;;;;;0.50;0.43;;;;;;;;;;5023638;28;20552;-75
2023/04/05 12:10:56;;;;;;;0.40;0.40;;;;;;;;;;5010108;28;20093;-75
2023/04/05 12:13:28;;;;;;;0.88;0.73;;;;;;;;;;5012930;28;20038;-75
2023/04/05 12:15:54;;;;;;;1.17;0.60;;;;;;;;;;5009135;28;20023;-75
2023/04/05 12:18:21;;;;;;;0.70;0.60;;;;;;;;;;5016078;28;20033;-76
2023/04/05 12:20:47;;;;;;;0.80;0.60;;;;;;;;;;5029167;28;20488;-76
2023/04/05 12:23:13;;;;;;;0.90;0.70;;;;;;;;;;5028460;28;20025;-76
2023/04/05 12:25:41;;;;;;;1.92;0.90;;;;;;;;;;5023631;28;20026;-76
2023/04/05 12:28:07;;;;;;;0.82;0.50;;;;;;;;;;5008977;28;20029;-77
2023/04/05 12:30:36;;;;;;;0.73;0.63;;;;;;;;;;5016046;28;20033;-75
2023/04/05 12:33:09;;;;;;;2.83;0.57;;;;;;;;;;5025503;28;20034;-76
2023/04/05 12:35:35;;;;;;;1.10;0.43;;;;;;;;;;5014255;28;20029;-76
2023/04/05 12:38:16;;;;;;;1.05;0.60;;;;;;;;;;5015245;28;20025;-77
2023/04/05 12:40:42;;;;;;;0.30;0.30;;;;;;;;;;5009262;28;20045;-77
2023/04/05 12:43:08;;;;;;;0.50;0.50;;;;;;;;;;5005364;28;20041;-76
2023/04/05 12:45:41;;;;;;;0.93;0.50;;;;;;;;;;5013211;28;20052;-77
2023/04/05 12:48:09;;;;;;;0.35;0.35;;;;;;;;;;5018439;28;20029;-77
2023/04/05 12:50:35;;;;;;;0.55;0.55;;;;;;;;;;5008919;28;20057;-77
2023/04/05 12:53:06;;;;;;;0.52;0.50;;;;;;;;;;5008993;28;20113;-77
2023/04/05 12:55:38;;;;;;;0.50;0.40;;;;;;;;;;5015930;28;20196;-77
2023/04/05 12:58:04;;;;;;;0.52;0.47;;;;;;;;;;5023537;28;20032;-76
2023/04/05 13:00:31;;;;;;;1.20;0.77;;;;;;;;;;5028082;28;20384;-77
2023/04/05 13:02:58;;;;;;;0.93;0.57;;;;;;;;;;5026547;28;20022;-76
2023/04/05 13:05:25;;;;;;;0.80;0.80;;;;;;;;;;5020490;28;20061;-76
2023/04/05 13:07:51;;;;;;;0.35;0.35;;;;;;;;;;5028290;28;20614;-75
2023/04/05 13:10:18;;;;;;;0.65;0.43;;;;;;;;;;5027725;28;20034;-75
2023/04/05 13:12:44;;;;;;;0.47;0.40;;;;;;;;;;5028078;28;20026;-76
2023/04/05 13:15:10;;;;;;;0.50;0.50;;;;;;;;;;5019401;28;20160;-76
2023/04/05 13:17:36;;;;;;;0.70;0.65;;;;;;;;;;5026362;28;20079;-76
2023/04/05 13:20:03;;;;;;;0.45;0.45;;;;;;;;;;5027774;28;20025;-75
2023/04/05 13:22:30;;;;;;;0.47;0.47;;;;;;;;;;5028128;28;20029;-76
2023/04/05 13:24:56;;;;;;;0.75;0.52;;;;;;;;;;5022469;28;20026;-77
2023/04/05 13:27:22;;;;;;;0.85;0.40;;;;;;;;;;5023452;28;20042;-76
2023/04/05 13:29:48;;;;;;;1.00;0.60;;;;;;;;;;5016474;28;20037;-76
2023/04/05 13:32:14;;;;;;;0.60;0.50;;;;;;;;;;5023519;28;20111;-76
2023/04/05 13:34:40;;;;;;;0.40;0.40;;;;;;;;;;5024429;28;20469;-76
2023/04/05 13:37:06;;;;;;;0.50;0.50;;;;;;;;;;5015560;28;20520;-75
2023/04/05 13:39:34;;;;;;;1.13;0.80;;;;;;;;;;5015958;28;20222;-75
2023/04/05 13:42:00;;;;;;;0.82;0.55;;;;;;;;;;5015162;28;20717;-75
2023/04/05 13:44:26;;;;;;;0.50;0.50;;;;;;;;;;5003727;28;20026;-75
2023/04/05 13:46:52;;;;;;;1.48;0.70;;;;;;;;;;4990706;28;20440;-75
2023/04/05 13:49:18;;;;;;;1.27;0.43;;;;;;;;;;4992583;28;20029;-75
2023/04/05 13:51:44;;;;;;;3.13;1.20;;;;;;;;;;5008434;28;20038;-75
2023/04/05 13:54:10;;;;;;;0.40;0.40;;;;;;;;;;5000321;28;20037;-75
2023/04/05 13:56:37;;;;;;;1.08;0.50;;;;;;;;;;4997769;28;20037;-75
2023/04/05 13:59:03;;;;;;;0.50;0.50;;;;;;;;;;4994187;28;20133;-76
2023/04/05 14:01:29;;;;;;;0.55;0.43;;;;;;;;;;4986797;28;20481;-76
2023/04/05 14:03:55;;;;;;;0.30;0.30;;;;;;;;;;5005811;28;20022;-76
2023/04/05 14:06:21;;;;;;;1.38;0.50;;;;;;;;;;5005848;28;20025;-76
2023/04/05 14:08:47;;;;;;;4.93;0.65;;;;;;;;;;5007865;28;20033;-76
2023/04/05 14:11:13;;;;;;;0.63;0.40;;;;;;;;;;5007274;28;20456;-76
2023/04/05 14:13:39;;;;;;;0.38;0.35;;;;;;;;;;4999644;28;20040;-76
2023/04/05 14:16:05;;;;;;;4.07;0.77;;;;;;;;;;4996872;28;20026;-75
2023/04/05 14:18:31;;;;;;;0.60;0.60;;;;;;;;;;5002375;28;20026;-76
2023/04/05 14:20:57;;;;;;;0.60;0.60;;;;;;;;;;4999338;28;20259;-76
2023/04/05 14:23:25;;;;;;;0.45;0.45;;;;;;;;;;5005762;28;20034;-76
2023/04/05 14:25:51;;;;;;;0.40;0.40;;;;;;;;;;4997882;28;20033;-76
2023/04/05 14:28:17;;;;;;;0.52;0.50;;;;;;;;;;4994695;28;20022;-76
2023/04/05 14:30:44;;;;;;;0.52;0.52;;;;;;;;;;5004665;28;20026;-76
2023/04/05 14:33:12;;;;;;;0.55;0.50;;;;;;;;;;4994366;28;20060;-76
2023/04/05 14:35:39;;;;;;;0.47;0.47;;;;;;;;;;4987676;28;20501;-76
2023/04/05 14:38:05;;;;;;;0.50;0.50;;;;;;;;;;4988895;28;20052;-76
2023/04/05 14:40:31;;;;;;;0.60;0.60;;;;;;;;;;4987409;28;20156;-75
2023/04/05 14:42:57;;;;;;;1.40;0.60;;;;;;;;;;5003551;28;20038;-75
2023/04/05 14:45:25;;;;;;;0.55;0.50;;;;;;;;;;5022463;28;20036;-75